Time;durP1;ratioP1;P1;durP2;ratioP2;P2;SDS_P1;SDS_P2;PMS_P1;PMS_P2;Temp;Humidity;BMP_temperature;BMP_pressure;BME280_temperature;BME280_humidity;BME280_pressure;Samples;Min_cycle;Max_cycle;Signal;HPM_P1;HPM_P2
2022/01/25 00:15:06;;;;;;;14.60;12.33;;;;;;;;;;5032273;28;20040;-58
2022/01/25 00:26:19;;;;;;;15.00;12.70;;;;;;;;;;5031939;28;20506;-58
2022/01/25 00:28:52;;;;;;;13.53;11.70;;;;;;;;;;5030858;28;20108;-57
2022/01/25 00:31:18;;;;;;;13.93;12.13;;;;;;;;;;5031924;28;20475;-57
2022/01/25 00:33:49;;;;;;;15.33;13.30;;;;;;;;;;5031909;28;20533;-57
2022/01/25 00:36:16;;;;;;;15.30;13.25;;;;;;;;;;5031748;28;20034;-58
2022/01/25 00:38:42;;;;;;;16.27;12.53;;;;;;;;;;5031073;28;20059;-58
2022/01/25 00:41:08;;;;;;;14.60;12.90;;;;;;;;;;5031676;28;20022;-57
2022/01/25 00:43:34;;;;;;;17.30;12.73;;;;;;;;;;5031768;28;20026;-57
2022/01/25 00:46:05;;;;;;;17.07;13.03;;;;;;;;;;5031804;28;20036;-57
2022/01/25 00:48:56;;;;;;;13.17;11.30;;;;;;;;;;5031034;28;20032;-58
2022/01/25 00:54:01;;;;;;;18.13;12.87;;;;;;;;;;5045839;28;20142;-57
2022/01/25 00:56:30;;;;;;;16.70;12.93;;;;;;;;;;5035633;28;20026;-56
2022/01/25 00:58:56;;;;;;;16.50;12.47;;;;;;;;;;5034708;28;20033;-56
2022/01/25 01:01:22;;;;;;;13.37;11.90;;;;;;;;;;5035483;28;20037;-57
2022/01/25 01:03:48;;;;;;;16.97;12.00;;;;;;;;;;5035059;28;20052;-58
2022/01/25 01:06:15;;;;;;;15.50;11.87;;;;;;;;;;5035116;28;20029;-58
2022/01/25 01:08:41;;;;;;;17.23;11.73;;;;;;;;;;5034784;28;20132;-58
2022/01/25 01:11:11;;;;;;;17.33;12.50;;;;;;;;;;5035310;28;20125;-57
2022/01/25 01:14:03;;;;;;;14.98;12.63;;;;;;;;;;5034891;28;20543;-57
2022/01/25 01:30:21;;;;;;;16.23;12.47;;;;;;;;;;5034668;28;20032;-58
2022/01/25 01:40:49;;;;;;;19.83;15.67;;;;;;;;;;5034862;28;20136;-56
2022/01/25 01:48:32;;;;;;;16.67;13.70;;;;;;;;;;5034084;28;20041;-55
2022/01/25 01:51:05;;;;;;;24.23;16.10;;;;;;;;;;5034413;28;20053;-57
2022/01/25 01:53:32;;;;;;;20.43;17.13;;;;;;;;;;5044078;28;20037;-57
2022/01/25 01:55:58;;;;;;;17.93;14.67;;;;;;;;;;5034944;28;20467;-57
2022/01/25 01:58:24;;;;;;;27.53;17.47;;;;;;;;;;5033423;28;20049;-56
2022/01/25 02:00:50;;;;;;;23.37;18.10;;;;;;;;;;5034446;28;20025;-58
2022/01/25 02:03:17;;;;;;;23.70;16.70;;;;;;;;;;5033016;28;20022;-57
2022/01/25 02:05:43;;;;;;;18.97;15.77;;;;;;;;;;5034193;28;20065;-56
2022/01/25 02:08:09;;;;;;;20.73;16.80;;;;;;;;;;5033646;28;20088;-57
2022/01/25 02:10:36;;;;;;;19.60;15.70;;;;;;;;;;5034029;28;20017;-57
2022/01/25 02:13:04;;;;;;;17.60;15.00;;;;;;;;;;5033929;28;20025;-58
2022/01/25 02:15:30;;;;;;;20.83;17.17;;;;;;;;;;5033949;28;20463;-57
2022/01/25 02:22:25;;;;;;;18.67;16.70;;;;;;;;;;5033435;28;20026;-57
2022/01/25 02:23:30;;;;;;;19.00;14.43;;;;;;;;;;5033949;28;20045;-57
2022/01/25 02:25:57;;;;;;;15.37;13.77;;;;;;;;;;5033891;28;20040;-58
2022/01/25 02:28:27;;;;;;;15.60;13.13;;;;;;;;;;5033313;28;20068;-58
2022/01/25 02:30:54;;;;;;;13.65;12.10;;;;;;;;;;5033751;28;20025;-57
2022/01/25 02:33:20;;;;;;;16.57;13.67;;;;;;;;;;5033734;28;20083;-57
2022/01/25 02:35:46;;;;;;;16.20;12.70;;;;;;;;;;5033571;28;20037;-57
2022/01/25 02:38:14;;;;;;;17.33;14.10;;;;;;;;;;5033084;28;20109;-57
2022/01/25 02:40:40;;;;;;;14.53;11.83;;;;;;;;;;5033608;28;20025;-58
2022/01/25 02:43:06;;;;;;;24.80;13.27;;;;;;;;;;5033785;28;20036;-56
2022/01/25 02:45:35;;;;;;;15.90;14.03;;;;;;;;;;5033359;28;20206;-57
2022/01/25 02:50:45;;;;;;;15.80;13.43;;;;;;;;;;5033617;28;20437;-58
2022/01/25 02:53:11;;;;;;;21.40;14.37;;;;;;;;;;5040127;28;20029;-58
2022/01/25 02:55:39;;;;;;;17.60;14.63;;;;;;;;;;5037037;28;20061;-58
2022/01/25 02:58:05;;;;;;;12.40;11.17;;;;;;;;;;5032734;28;20021;-58
2022/01/25 03:00:32;;;;;;;16.87;13.10;;;;;;;;;;5032675;28;20025;-55
2022/01/25 03:02:58;;;;;;;13.47;12.07;;;;;;;;;;5033070;28;20426;-57
2022/01/25 03:05:24;;;;;;;16.77;12.70;;;;;;;;;;5033115;28;20033;-56
2022/01/25 03:07:50;;;;;;;15.63;12.23;;;;;;;;;;5032332;28;20379;-55
2022/01/25 03:10:16;;;;;;;14.93;12.00;;;;;;;;;;5033151;28;20021;-56
2022/01/25 03:12:48;;;;;;;15.93;14.23;;;;;;;;;;5032996;28;20030;-57
2022/01/25 03:17:52;;;;;;;18.10;13.67;;;;;;;;;;5032713;28;20102;-57
2022/01/25 03:20:22;;;;;;;14.53;12.33;;;;;;;;;;5033218;28;20026;-57
2022/01/25 03:25:20;;;;;;;15.83;12.47;;;;;;;;;;5032723;28;20529;-58
2022/01/25 03:27:46;;;;;;;19.27;14.33;;;;;;;;;;5032438;28;20018;-59
2022/01/25 03:30:12;;;;;;;18.23;12.73;;;;;;;;;;5032754;28;20415;-58
2022/01/25 03:32:38;;;;;;;16.63;13.33;;;;;;;;;;5032537;28;20024;-55
2022/01/25 03:35:04;;;;;;;17.97;12.07;;;;;;;;;;5032712;28;20100;-58
2022/01/25 03:37:30;;;;;;;14.77;11.10;;;;;;;;;;5032669;28;20125;-57
2022/01/25 03:39:56;;;;;;;15.17;12.73;;;;;;;;;;5031945;28;20108;-56
2022/01/25 03:42:23;;;;;;;14.97;12.07;;;;;;;;;;5032307;28;20029;-57
2022/01/25 03:44:50;;;;;;;19.10;14.30;;;;;;;;;;5032880;28;20030;-57
2022/01/25 03:47:19;;;;;;;17.07;12.60;;;;;;;;;;5032208;28;20041;-58
2022/01/25 03:49:52;;;;;;;17.10;13.83;;;;;;;;;;5031909;28;20129;-58
2022/01/25 03:52:27;;;;;;;17.33;14.03;;;;;;;;;;5032225;28;20131;-58
2022/01/25 03:54:53;;;;;;;19.87;15.20;;;;;;;;;;5042236;28;20192;-57
2022/01/25 03:57:19;;;;;;;13.10;11.37;;;;;;;;;;5052095;28;20056;-58
2022/01/25 03:59:45;;;;;;;22.60;12.60;;;;;;;;;;5051587;28;20090;-58
2022/01/25 04:02:12;;;;;;;18.20;13.17;;;;;;;;;;5051986;28;20485;-57
2022/01/25 04:04:38;;;;;;;15.53;11.80;;;;;;;;;;5051949;28;20044;-57
2022/01/25 04:07:09;;;;;;;16.53;13.73;;;;;;;;;;5051993;28;20024;-58
2022/01/25 04:09:36;;;;;;;15.30;13.00;;;;;;;;;;5051262;28;20068;-58
2022/01/25 04:12:02;;;;;;;13.83;11.10;;;;;;;;;;5052030;28;20430;-58
2022/01/25 04:14:29;;;;;;;16.77;12.60;;;;;;;;;;5051956;28;20478;-56
2022/01/25 04:17:03;;;;;;;12.53;10.30;;;;;;;;;;5051849;28;20170;-58
2022/01/25 04:19:37;;;;;;;14.67;11.87;;;;;;;;;;5051282;28;20437;-58
2022/01/25 04:24:44;;;;;;;16.10;12.30;;;;;;;;;;5052114;28;20071;-58
2022/01/25 04:27:11;;;;;;;16.20;12.90;;;;;;;;;;5054996;28;20425;-58
2022/01/25 04:29:36;;;;;;;14.87;13.23;;;;;;;;;;5055734;28;20052;-58
2022/01/25 04:32:05;;;;;;;15.13;11.20;;;;;;;;;;5050722;28;20286;-56
2022/01/25 04:48:53;;;;;;;14.67;12.93;;;;;;;;;;5056081;28;20474;-56
2022/01/25 04:58:32;;;;;;;14.37;13.00;;;;;;;;;;5054886;28;20033;-56
2022/01/25 05:00:58;;;;;;;19.73;13.00;;;;;;;;;;5055455;28;20509;-55
2022/01/25 05:03:30;;;;;;;14.43;12.40;;;;;;;;;;5055043;28;20060;-59
2022/01/25 05:06:04;;;;;;;19.27;12.53;;;;;;;;;;5055085;28;20119;-59
2022/01/25 05:11:06;;;;;;;16.13;11.73;;;;;;;;;;5055515;28;20136;-56
2022/01/25 05:13:45;;;;;;;13.00;10.60;;;;;;;;;;5055140;28;20037;-57
2022/01/25 05:16:27;;;;;;;14.83;12.50;;;;;;;;;;5055151;28;20036;-58
2022/01/25 05:19:03;;;;;;;17.60;13.97;;;;;;;;;;5054440;28;20036;-58
2022/01/25 05:24:14;;;;;;;15.10;12.93;;;;;;;;;;5055185;28;20076;-58
2022/01/25 05:26:40;;;;;;;15.53;12.83;;;;;;;;;;5055128;28;20443;-57
2022/01/25 05:29:07;;;;;;;15.30;13.80;;;;;;;;;;5054571;28;20064;-57
2022/01/25 05:31:33;;;;;;;20.93;15.13;;;;;;;;;;5052020;28;20463;-57
2022/01/25 05:33:59;;;;;;;16.53;11.97;;;;;;;;;;5054719;28;20032;-58
2022/01/25 05:36:26;;;;;;;19.30;14.37;;;;;;;;;;5054540;28;20040;-58
2022/01/25 05:38:52;;;;;;;14.43;12.50;;;;;;;;;;5054037;28;20070;-57
2022/01/25 05:41:18;;;;;;;15.23;13.67;;;;;;;;;;5054717;28;20028;-58
2022/01/25 05:46:41;;;;;;;22.97;14.37;;;;;;;;;;5054991;28;20064;-58
2022/01/25 05:49:07;;;;;;;16.80;15.10;;;;;;;;;;5053895;28;20025;-58
2022/01/25 05:51:33;;;;;;;19.57;13.80;;;;;;;;;;5054554;28;20021;-58
2022/01/25 05:53:59;;;;;;;16.37;14.23;;;;;;;;;;5043942;28;20026;-58
2022/01/25 05:56:25;;;;;;;15.17;12.67;;;;;;;;;;5054735;28;20029;-58
2022/01/25 05:58:51;;;;;;;18.67;14.63;;;;;;;;;;5053951;28;20040;-58
2022/01/25 06:01:18;;;;;;;17.00;13.57;;;;;;;;;;5054874;28;20124;-56
2022/01/25 06:03:45;;;;;;;27.93;12.40;;;;;;;;;;5054330;28;20021;-57
2022/01/25 06:06:11;;;;;;;21.23;14.57;;;;;;;;;;5054342;28;20052;-58
2022/01/25 06:08:37;;;;;;;17.00;12.30;;;;;;;;;;5053461;28;20021;-58
2022/01/25 06:11:03;;;;;;;23.57;15.40;;;;;;;;;;5054565;28;20120;-58
2022/01/25 06:13:29;;;;;;;19.53;14.33;;;;;;;;;;5054454;28;20090;-58
2022/01/25 06:15:55;;;;;;;18.80;13.33;;;;;;;;;;5054282;28;20386;-58
2022/01/25 06:18:21;;;;;;;13.90;12.47;;;;;;;;;;5053791;28;20033;-58
2022/01/25 06:20:47;;;;;;;15.37;12.13;;;;;;;;;;5054274;28;20033;-58
2022/01/25 06:23:13;;;;;;;15.93;12.67;;;;;;;;;;5054569;28;20033;-56
2022/01/25 06:25:41;;;;;;;17.53;14.60;;;;;;;;;;5054184;28;20033;-58
2022/01/25 06:28:07;;;;;;;17.33;13.60;;;;;;;;;;5053488;28;20029;-58
2022/01/25 06:30:33;;;;;;;16.60;13.57;;;;;;;;;;5052189;28;20048;-58
2022/01/25 06:32:59;;;;;;;15.90;13.90;;;;;;;;;;5053653;28;20021;-57
2022/01/25 06:35:31;;;;;;;22.77;13.43;;;;;;;;;;5053556;28;20123;-57
2022/01/25 06:37:56;;;;;;;17.07;13.90;;;;;;;;;;5053197;28;20041;-57
2022/01/25 06:40:24;;;;;;;17.10;15.27;;;;;;;;;;5053976;28;20029;-58
2022/01/25 06:42:50;;;;;;;19.10;14.93;;;;;;;;;;5053697;28;20037;-58
2022/01/25 06:45:19;;;;;;;18.40;14.30;;;;;;;;;;5053740;28;20033;-57
2022/01/25 06:47:46;;;;;;;20.53;13.90;;;;;;;;;;5053219;28;20106;-58
2022/01/25 06:50:15;;;;;;;20.10;14.00;;;;;;;;;;5052531;28;20439;-57
2022/01/25 06:52:42;;;;;;;18.00;13.63;;;;;;;;;;5050875;28;20029;-58
2022/01/25 06:55:09;;;;;;;12.53;9.90;;;;;;;;;;5045588;28;20368;-58
2022/01/25 06:57:35;;;;;;;17.03;14.30;;;;;;;;;;5053412;28;20029;-59
2022/01/25 07:00:01;;;;;;;16.13;13.80;;;;;;;;;;5052602;28;20434;-58
2022/01/25 07:02:28;;;;;;;15.17;12.23;;;;;;;;;;5052951;28;20082;-58
2022/01/25 07:04:53;;;;;;;18.63;14.33;;;;;;;;;;5053327;28;20123;-59
2022/01/25 07:07:20;;;;;;;17.13;15.07;;;;;;;;;;5053291;28;20110;-58
2022/01/25 07:09:46;;;;;;;20.77;16.07;;;;;;;;;;5052493;28;20112;-57
2022/01/25 07:12:12;;;;;;;17.40;14.13;;;;;;;;;;5053201;28;20056;-59
2022/01/25 07:14:38;;;;;;;17.97;13.97;;;;;;;;;;5052935;28;20470;-58
2022/01/25 07:17:04;;;;;;;19.87;14.50;;;;;;;;;;5052834;28;20036;-58
2022/01/25 07:19:30;;;;;;;19.80;16.03;;;;;;;;;;5052453;28;20021;-58
2022/01/25 07:21:56;;;;;;;18.77;13.83;;;;;;;;;;5052695;28;20123;-59
2022/01/25 07:24:22;;;;;;;16.97;15.07;;;;;;;;;;5052904;28;20116;-58
2022/01/25 07:26:48;;;;;;;15.80;13.80;;;;;;;;;;5052787;28;20036;-56
2022/01/25 07:29:15;;;;;;;15.53;13.63;;;;;;;;;;5052131;28;20107;-58
2022/01/25 07:31:41;;;;;;;17.03;12.97;;;;;;;;;;5050516;28;20083;-58
2022/01/25 07:34:07;;;;;;;17.33;14.87;;;;;;;;;;5052873;28;20116;-58
2022/01/25 07:36:34;;;;;;;18.60;14.63;;;;;;;;;;5052689;28;20064;-58
2022/01/25 07:39:00;;;;;;;17.10;12.83;;;;;;;;;;5052474;28;20033;-58
2022/01/25 07:41:26;;;;;;;18.20;14.47;;;;;;;;;;5052759;28;20047;-58
2022/01/25 07:43:52;;;;;;;16.47;13.60;;;;;;;;;;5052430;28;20518;-58
2022/01/25 07:46:18;;;;;;;16.63;13.47;;;;;;;;;;5052389;28;20037;-58
2022/01/25 07:48:44;;;;;;;18.70;13.00;;;;;;;;;;5051547;28;20025;-58
2022/01/25 07:51:10;;;;;;;17.53;14.13;;;;;;;;;;5052579;28;20031;-58
2022/01/25 07:53:37;;;;;;;15.47;12.03;;;;;;;;;;5042027;28;20026;-57
2022/01/25 07:56:04;;;;;;;17.53;14.50;;;;;;;;;;5052141;28;20476;-57
2022/01/25 07:58:30;;;;;;;14.47;12.33;;;;;;;;;;5051591;28;20029;-58
2022/01/25 08:00:56;;;;;;;23.17;15.73;;;;;;;;;;5052024;28;20032;-58
2022/01/25 08:03:22;;;;;;;17.07;13.30;;;;;;;;;;5052341;28;20025;-58
2022/01/25 08:05:50;;;;;;;21.87;15.60;;;;;;;;;;5052460;28;20131;-58
2022/01/25 08:08:16;;;;;;;18.40;13.37;;;;;;;;;;5051682;28;20048;-57
2022/01/25 08:10:42;;;;;;;18.93;13.40;;;;;;;;;;5052298;28;20439;-58
2022/01/25 08:13:08;;;;;;;16.20;14.27;;;;;;;;;;5052268;28;20120;-59
2022/01/25 08:15:34;;;;;;;20.20;16.50;;;;;;;;;;5052253;28;20441;-59
2022/01/25 08:18:00;;;;;;;20.90;15.23;;;;;;;;;;5051684;28;20107;-58
2022/01/25 08:20:26;;;;;;;17.33;15.50;;;;;;;;;;5052087;28;20459;-58
2022/01/25 08:22:52;;;;;;;22.50;17.53;;;;;;;;;;5051806;28;20036;-57
2022/01/25 08:25:19;;;;;;;21.90;15.90;;;;;;;;;;5051957;28;20025;-56
2022/01/25 08:27:45;;;;;;;21.60;16.47;;;;;;;;;;5051776;28;20068;-58
2022/01/25 08:30:12;;;;;;;27.70;15.83;;;;;;;;;;5051978;28;20445;-57
2022/01/25 08:32:38;;;;;;;21.10;17.40;;;;;;;;;;5051869;28;20057;-58
2022/01/25 08:35:04;;;;;;;20.83;17.27;;;;;;;;;;5049946;28;20061;-58
2022/01/25 08:37:30;;;;;;;18.73;15.30;;;;;;;;;;5049921;28;20025;-58
2022/01/25 08:39:56;;;;;;;18.73;15.87;;;;;;;;;;5049191;28;20032;-57
2022/01/25 08:42:22;;;;;;;22.63;17.10;;;;;;;;;;5047228;28;20059;-58
2022/01/25 08:44:48;;;;;;;24.27;17.30;;;;;;;;;;5049487;28;20044;-57
2022/01/25 08:47:14;;;;;;;23.50;18.40;;;;;;;;;;5050079;28;20033;-58
2022/01/25 08:49:40;;;;;;;26.90;17.53;;;;;;;;;;5049152;28;20395;-58
2022/01/25 08:52:07;;;;;;;19.97;16.23;;;;;;;;;;5050264;28;20029;-57
2022/01/25 08:54:33;;;;;;;22.47;17.70;;;;;;;;;;5040803;28;20111;-56
2022/01/25 08:56:59;;;;;;;20.57;15.93;;;;;;;;;;5051499;28;20079;-57
2022/01/25 08:59:25;;;;;;;24.40;16.97;;;;;;;;;;5051102;28;20041;-55
2022/01/25 09:01:51;;;;;;;20.13;17.00;;;;;;;;;;5051761;28;20036;-56
2022/01/25 09:04:18;;;;;;;22.73;18.07;;;;;;;;;;5051438;28;20037;-56
2022/01/25 09:06:44;;;;;;;25.47;18.20;;;;;;;;;;5051779;28;20055;-56
2022/01/25 09:09:10;;;;;;;30.40;18.27;;;;;;;;;;5050803;28;20459;-56
2022/01/25 09:11:37;;;;;;;19.40;16.57;;;;;;;;;;5051579;28;20029;-57
2022/01/25 09:14:04;;;;;;;18.90;16.27;;;;;;;;;;5055566;28;20320;-56
2022/01/25 09:16:30;;;;;;;22.83;17.37;;;;;;;;;;5055787;28;20488;-53
2022/01/25 09:18:56;;;;;;;29.90;18.07;;;;;;;;;;5054854;28;20037;-56
2022/01/25 09:21:22;;;;;;;24.63;18.67;;;;;;;;;;5055162;28;20033;-54
2022/01/25 09:23:48;;;;;;;22.13;17.87;;;;;;;;;;5055154;28;20029;-56
2022/01/25 09:26:14;;;;;;;22.97;16.10;;;;;;;;;;5054914;28;20075;-56
2022/01/25 09:28:40;;;;;;;16.73;14.63;;;;;;;;;;5054652;28;20068;-56
2022/01/25 09:31:06;;;;;;;20.83;16.17;;;;;;;;;;5055202;28;20403;-54
2022/01/25 09:33:32;;;;;;;18.43;16.07;;;;;;;;;;5055105;28;20174;-57
2022/01/25 09:35:58;;;;;;;22.83;17.57;;;;;;;;;;5054798;28;20474;-57
2022/01/25 09:38:25;;;;;;;17.77;14.80;;;;;;;;;;5054091;28;20118;-56
2022/01/25 09:40:52;;;;;;;20.17;16.17;;;;;;;;;;5054272;28;20025;-56
2022/01/25 09:43:20;;;;;;;23.20;17.03;;;;;;;;;;5053622;28;20035;-57
2022/01/25 09:45:46;;;;;;;19.23;15.67;;;;;;;;;;5052993;28;20078;-58
2022/01/25 09:48:12;;;;;;;26.70;19.20;;;;;;;;;;5052055;28;20037;-58
2022/01/25 09:50:38;;;;;;;19.03;17.03;;;;;;;;;;5052756;28;20443;-56
2022/01/25 09:53:05;;;;;;;24.50;18.47;;;;;;;;;;5047151;28;20030;-57
2022/01/25 09:55:36;;;;;;;24.90;17.60;;;;;;;;;;5047531;28;20376;-57
2022/01/25 09:58:05;;;;;;;26.93;18.00;;;;;;;;;;5052136;28;20037;-57
2022/01/25 10:00:32;;;;;;;28.13;17.73;;;;;;;;;;5054406;28;20135;-55
2022/01/25 10:03:17;;;;;;;19.83;16.67;;;;;;;;;;5054528;28;20111;-55
2022/01/25 10:05:45;;;;;;;18.83;14.47;;;;;;;;;;5049556;28;20095;-58
2022/01/25 10:08:11;;;;;;;23.20;17.97;;;;;;;;;;5044567;28;20112;-58
2022/01/25 10:10:47;;;;;;;18.50;14.50;;;;;;;;;;5054181;28;20067;-57
2022/01/25 10:13:24;;;;;;;18.30;16.37;;;;;;;;;;5054287;28;20025;-57
2022/01/25 10:15:50;;;;;;;20.60;15.93;;;;;;;;;;5054249;28;20426;-56
2022/01/25 10:18:16;;;;;;;22.73;16.37;;;;;;;;;;5053802;28;20045;-56
2022/01/25 10:20:44;;;;;;;22.70;18.03;;;;;;;;;;5054278;28;20029;-57
2022/01/25 10:23:19;;;;;;;19.40;15.70;;;;;;;;;;5053396;28;20025;-55
2022/01/25 10:25:46;;;;;;;20.03;15.70;;;;;;;;;;5053606;28;20040;-54
2022/01/25 10:28:14;;;;;;;20.50;15.37;;;;;;;;;;5053350;28;20082;-58
2022/01/25 10:30:41;;;;;;;24.67;15.27;;;;;;;;;;5053807;28;20035;-53
2022/01/25 10:33:28;;;;;;;17.63;14.93;;;;;;;;;;5053662;28;20036;-56
2022/01/25 10:35:55;;;;;;;16.33;13.83;;;;;;;;;;5053511;28;20109;-57
2022/01/25 10:38:22;;;;;;;22.13;15.20;;;;;;;;;;5052965;28;20135;-57
2022/01/25 10:41:15;;;;;;;18.30;14.77;;;;;;;;;;5052052;28;20028;-55
2022/01/25 10:43:43;;;;;;;22.67;16.53;;;;;;;;;;5053158;28;20037;-57
2022/01/25 10:46:10;;;;;;;21.10;14.87;;;;;;;;;;5051766;28;20037;-57
2022/01/25 10:48:37;;;;;;;19.33;14.23;;;;;;;;;;5052638;28;20449;-56
2022/01/25 10:51:06;;;;;;;25.00;17.00;;;;;;;;;;5053399;28;20132;-55
2022/01/25 10:53:32;;;;;;;17.67;15.77;;;;;;;;;;5053394;28;20032;-55
2022/01/25 10:56:02;;;;;;;20.40;16.27;;;;;;;;;;5033853;28;20091;-56
2022/01/25 10:58:28;;;;;;;17.33;14.97;;;;;;;;;;5030391;28;20025;-55
2022/01/25 11:00:54;;;;;;;16.13;13.20;;;;;;;;;;5033510;28;20043;-57
2022/01/25 11:03:29;;;;;;;21.00;15.57;;;;;;;;;;5033401;28;20030;-56
2022/01/25 11:05:56;;;;;;;16.67;14.10;;;;;;;;;;5033005;28;20087;-55
2022/01/25 11:08:23;;;;;;;21.57;15.67;;;;;;;;;;5032428;28;20148;-55
2022/01/25 11:10:57;;;;;;;24.57;18.07;;;;;;;;;;5033351;28;20052;-54
2022/01/25 11:13:48;;;;;;;18.93;14.83;;;;;;;;;;5032966;28;20567;-56
2022/01/25 11:16:11;;;;;;;21.97;16.33;;;;;;;;;;5032708;28;20395;-54
2022/01/25 11:18:37;;;;;;;19.77;16.83;;;;;;;;;;5032439;28;20068;-55
2022/01/25 11:21:05;;;;;;;23.60;17.43;;;;;;;;;;5032756;28;20062;-56
2022/01/25 11:23:32;;;;;;;21.50;17.33;;;;;;;;;;5033454;28;20036;-57
2022/01/25 11:26:02;;;;;;;23.53;16.63;;;;;;;;;;5032779;28;20083;-57
2022/01/25 11:28:28;;;;;;;26.03;17.93;;;;;;;;;;5032253;28;20110;-57
2022/01/25 11:30:54;;;;;;;25.70;17.70;;;;;;;;;;5032951;28;20414;-56
2022/01/25 11:33:21;;;;;;;20.47;17.83;;;;;;;;;;5032401;28;20040;-57
2022/01/25 11:35:48;;;;;;;24.33;17.43;;;;;;;;;;5032560;28;20471;-57
2022/01/25 11:38:14;;;;;;;23.13;17.97;;;;;;;;;;5032132;28;20075;-57
2022/01/25 11:40:45;;;;;;;23.73;17.60;;;;;;;;;;5032833;28;20025;-54
2022/01/25 11:43:11;;;;;;;;;;;;;;;;;;5033215;28;20079;-56
2022/01/25 11:45:41;;;;;;;22.77;18.50;;;;;;;;;;5032606;28;19917;-57
2022/01/25 11:48:07;;;;;;;21.33;16.92;;;;;;;;;;5031854;28;20041;-54
2022/01/25 11:50:35;;;;;;;24.10;18.47;;;;;;;;;;5032648;28;20057;-56
2022/01/25 11:53:06;;;;;;;23.43;18.13;;;;;;;;;;5037660;28;20021;-55
2022/01/25 11:55:41;;;;;;;25.07;19.40;;;;;;;;;;5036918;28;20083;-56
2022/01/25 11:58:14;;;;;;;30.57;17.77;;;;;;;;;;5031625;28;20029;-53
2022/01/25 12:00:40;;;;;;;21.02;17.73;;;;;;;;;;5032907;28;20438;-54
2022/01/25 12:03:35;;;;;;;23.10;18.97;;;;;;;;;;5032482;28;20025;-57
2022/01/25 12:06:06;;;;;;;21.77;17.77;;;;;;;;;;5031551;28;20150;-56
2022/01/25 12:11:30;;;;;;;21.17;17.40;;;;;;;;;;5031259;28;20051;-57
2022/01/25 12:14:28;;;;;;;23.35;17.75;;;;;;;;;;5032222;28;20087;-57
2022/01/25 12:16:57;;;;;;;24.17;18.60;;;;;;;;;;5030714;28;20025;-56
2022/01/25 12:19:33;;;;;;;22.70;19.20;;;;;;;;;;5031212;28;20552;-56
2022/01/25 12:22:01;;;;;;;24.03;19.87;;;;;;;;;;5032315;28;20108;-55
2022/01/25 12:24:38;;;;;;;23.07;19.50;;;;;;;;;;5032016;28;20029;-56
2022/01/25 12:27:29;;;;;;;22.67;19.58;;;;;;;;;;5032080;28;20026;-56
2022/01/25 12:29:59;;;;;;;31.33;20.83;;;;;;;;;;5031458;28;20383;-57
2022/01/25 12:32:27;;;;;;;27.63;17.15;;;;;;;;;;5031958;28;20028;-55
2022/01/25 12:35:12;;;;;;;31.97;20.73;;;;;;;;;;5032031;28;20147;-54
2022/01/25 12:37:44;;;;;;;27.23;21.00;;;;;;;;;;5031884;28;20025;-57
2022/01/25 12:40:25;;;;;;;27.93;21.60;;;;;;;;;;5031620;28;20040;-57
2022/01/25 12:42:56;;;;;;;28.00;21.00;;;;;;;;;;5031791;28;20033;-54
2022/01/25 12:45:22;;;;;;;;;;;;;;;;;;5032203;28;20119;-54
2022/01/25 12:47:55;;;;;;;24.27;19.90;;;;;;;;;;5033593;28;20039;-56
2022/01/25 12:50:21;;;;;;;22.60;18.77;;;;;;;;;;5035691;28;20033;-55
2022/01/25 12:52:47;;;;;;;25.60;19.63;;;;;;;;;;5038982;28;20362;-57
2022/01/25 12:55:14;;;;;;;26.10;19.57;;;;;;;;;;5042700;28;20033;-54
2022/01/25 12:57:47;;;;;;;32.63;19.92;;;;;;;;;;5035568;28;20083;-55
2022/01/25 13:00:14;;;;;;;26.97;19.73;;;;;;;;;;5035266;28;20117;-57
2022/01/25 13:02:40;;;;;;;27.83;20.57;;;;;;;;;;5035611;28;20487;-57
2022/01/25 13:05:19;;;;;;;24.90;18.53;;;;;;;;;;5035069;28;20072;-57
2022/01/25 13:07:45;;;;;;;29.27;21.67;;;;;;;;;;5035295;28;20026;-57
2022/01/25 13:10:22;;;;;;;31.83;22.63;;;;;;;;;;5035457;28;20030;-57
2022/01/25 13:13:10;;;;;;;31.53;23.23;;;;;;;;;;5035584;28;20093;-57
2022/01/25 13:18:11;;;;;;;24.70;19.37;;;;;;;;;;5034829;28;20040;-56
2022/01/25 13:20:38;;;;;;;31.40;22.52;;;;;;;;;;5035520;28;20195;-57
2022/01/25 13:23:04;;;;;;;28.38;22.98;;;;;;;;;;5035260;28;20036;-53
2022/01/25 13:25:45;;;;;;;26.33;22.23;;;;;;;;;;5035042;28;20034;-54
2022/01/25 13:28:32;;;;;;;27.13;20.83;;;;;;;;;;5034294;28;20033;-56
2022/01/25 13:30:58;;;;;;;30.57;21.97;;;;;;;;;;5035070;28;20040;-55
2022/01/25 13:33:24;;;;;;;23.77;19.53;;;;;;;;;;5034956;28;20104;-57
2022/01/25 13:35:53;;;;;;;32.77;23.83;;;;;;;;;;5035104;28;20037;-55
2022/01/25 13:38:19;;;;;;;28.53;22.67;;;;;;;;;;5033971;28;20084;-56
2022/01/25 13:40:51;;;;;;;27.60;21.40;;;;;;;;;;5034686;28;20471;-56
2022/01/25 13:46:07;;;;;;;26.83;21.50;;;;;;;;;;5034601;28;20052;-56
2022/01/25 13:48:34;;;;;;;25.92;21.90;;;;;;;;;;5047052;28;20028;-55
2022/01/25 13:51:02;;;;;;;28.33;22.13;;;;;;;;;;5054193;28;20029;-54
2022/01/25 13:53:28;;;;;;;23.10;19.05;;;;;;;;;;5052723;28;20271;-57
2022/01/25 13:55:55;;;;;;;23.17;19.93;;;;;;;;;;5053280;28;20060;-53
2022/01/25 13:58:25;;;;;;;24.00;19.73;;;;;;;;;;5052851;28;20051;-54
2022/01/25 14:00:52;;;;;;;26.58;19.85;;;;;;;;;;5052424;28;20420;-57
2022/01/25 14:03:18;;;;;;;24.23;19.73;;;;;;;;;;5053268;28;20585;-57
2022/01/25 14:05:44;;;;;;;29.58;20.92;;;;;;;;;;5053435;28;20033;-57
2022/01/25 14:08:10;;;;;;;28.10;20.92;;;;;;;;;;5052965;28;20325;-56
2022/01/25 14:10:38;;;;;;;29.08;19.70;;;;;;;;;;5053738;28;20111;-57
2022/01/25 14:24:09;;;;;;;25.27;19.88;;;;;;;;;;5053762;28;20390;-57
2022/01/25 14:26:36;;;;;;;25.67;19.77;;;;;;;;;;5053960;28;20021;-56
2022/01/25 14:29:12;;;;;;;28.43;19.67;;;;;;;;;;5053216;28;20067;-56
2022/01/25 14:31:42;;;;;;;25.90;20.23;;;;;;;;;;5053688;28;20051;-57
2022/01/25 14:34:09;;;;;;;28.47;21.80;;;;;;;;;;5053781;28;20043;-57
2022/01/25 14:36:36;;;;;;;29.52;21.55;;;;;;;;;;5054122;28;20032;-57
2022/01/25 14:39:03;;;;;;;27.05;20.33;;;;;;;;;;5052972;28;20090;-57
2022/01/25 14:41:31;;;;;;;32.67;21.50;;;;;;;;;;5053634;28;20482;-54
2022/01/25 14:44:03;;;;;;;33.40;23.10;;;;;;;;;;5053402;28;20036;-57
2022/01/25 14:46:42;;;;;;;29.25;22.73;;;;;;;;;;5053089;28;20086;-55
2022/01/25 14:49:18;;;;;;;33.40;24.13;;;;;;;;;;5052568;28;20029;-56
2022/01/25 14:51:44;;;;;;;30.17;23.70;;;;;;;;;;5053370;28;20086;-57
2022/01/25 14:54:12;;;;;;;31.27;22.83;;;;;;;;;;5042757;28;20385;-57
2022/01/25 14:56:47;;;;;;;36.07;22.23;;;;;;;;;;5053120;28;20459;-55
2022/01/25 14:59:26;;;;;;;32.53;24.93;;;;;;;;;;5052453;28;20466;-57
2022/01/25 15:01:53;;;;;;;35.80;24.87;;;;;;;;;;5052795;28;20037;-57
2022/01/25 15:04:19;;;;;;;31.03;22.90;;;;;;;;;;5053343;28;20052;-55
2022/01/25 15:06:45;;;;;;;31.80;22.13;;;;;;;;;;5053263;28;20059;-54
2022/01/25 15:09:13;;;;;;;31.13;23.97;;;;;;;;;;5052247;28;20044;-57
2022/01/25 15:11:40;;;;;;;43.37;27.30;;;;;;;;;;5052776;28;20025;-57
2022/01/25 15:14:17;;;;;;;38.30;24.53;;;;;;;;;;5052991;28;20068;-56
2022/01/25 15:16:42;;;;;;;39.80;27.27;;;;;;;;;;5053060;28;20136;-57
2022/01/25 15:19:08;;;;;;;33.27;25.23;;;;;;;;;;5052427;28;20106;-55
2022/01/25 15:21:34;;;;;;;32.57;23.27;;;;;;;;;;5052798;28;20036;-56
2022/01/25 15:24:01;;;;;;;30.90;23.17;;;;;;;;;;5052873;28;20025;-57
2022/01/25 15:26:35;;;;;;;33.97;26.47;;;;;;;;;;5052739;28;20126;-56
2022/01/25 15:29:03;;;;;;;34.40;23.20;;;;;;;;;;5052254;28;20029;-57
2022/01/25 15:31:29;;;;;;;33.03;23.37;;;;;;;;;;5052754;28;20029;-58
2022/01/25 15:33:55;;;;;;;35.40;22.73;;;;;;;;;;5052311;28;20021;-57
2022/01/25 15:36:22;;;;;;;36.73;23.67;;;;;;;;;;5052512;28;20119;-57
2022/01/25 15:38:49;;;;;;;32.77;24.37;;;;;;;;;;5051954;28;20017;-55
2022/01/25 15:41:15;;;;;;;29.50;23.80;;;;;;;;;;5051857;28;20032;-57
2022/01/25 15:43:50;;;;;;;36.73;26.97;;;;;;;;;;5052256;28;20392;-58
2022/01/25 15:47:02;;;;;;;32.50;23.53;;;;;;;;;;5052253;28;20086;-56
2022/01/25 15:49:09;;;;;;;32.33;25.03;;;;;;;;;;5053583;28;20039;-56
2022/01/25 15:51:35;;;;;;;38.90;24.03;;;;;;;;;;5051675;28;20055;-57
2022/01/25 15:54:02;;;;;;;37.27;26.20;;;;;;;;;;5048603;28;20033;-57
2022/01/25 15:56:28;;;;;;;29.57;21.73;;;;;;;;;;5052241;28;20033;-56
2022/01/25 15:58:55;;;;;;;37.43;26.50;;;;;;;;;;5051608;28;20171;-56
2022/01/25 16:01:21;;;;;;;34.47;25.93;;;;;;;;;;5052334;28;20029;-56
2022/01/25 16:03:47;;;;;;;32.50;27.27;;;;;;;;;;5052091;28;20486;-54
2022/01/25 16:06:13;;;;;;;41.27;26.73;;;;;;;;;;5051703;28;20033;-58
2022/01/25 16:08:39;;;;;;;25.80;19.53;;;;;;;;;;5051808;28;20406;-58
2022/01/25 16:11:13;;;;;;;34.17;26.07;;;;;;;;;;5052200;28;20156;-57
2022/01/25 16:13:43;;;;;;;39.67;28.27;;;;;;;;;;5052160;28;20033;-54
2022/01/25 16:16:10;;;;;;;37.70;27.30;;;;;;;;;;5052005;28;20032;-53
2022/01/25 16:18:36;;;;;;;36.60;25.57;;;;;;;;;;5051265;28;20056;-54
2022/01/25 16:21:02;;;;;;;36.20;26.03;;;;;;;;;;5051197;28;20025;-55